createdAt,value
2022-09-25T00:01:30.285Z,73.67
2022-09-25T00:03:58.357Z,74.38
2022-09-25T00:06:30.120Z,74.36
2022-09-25T00:08:59.649Z,73.91
2022-09-25T00:11:31.052Z,74.34
2022-09-25T00:14:01.126Z,75.03
2022-09-25T00:16:32.783Z,75.36
2022-09-25T00:19:19.701Z,75.75
2022-09-25T00:21:53.609Z,76.32
2022-09-25T00:24:22.233Z,76.92
2022-09-25T00:26:50.325Z,77.46
2022-09-25T00:29:21.467Z,76.97
2022-09-25T00:31:49.549Z,76.28
2022-09-25T00:34:17.604Z,76.04
2022-09-25T00:36:45.605Z,76.03
2022-09-25T00:39:15.078Z,76.17
2022-09-25T00:41:43.292Z,76.93
2022-09-25T00:44:52.290Z,76.83
2022-09-25T00:47:29.854Z,76.99
2022-09-25T00:50:02.357Z,76.97
2022-09-25T00:52:32.517Z,77.68
2022-09-25T00:55:08.260Z,78.40
2022-09-25T00:57:40.448Z,78.27
2022-09-25T01:00:13.232Z,78.34
2022-09-25T01:02:47.267Z,78.41
2022-09-25T01:05:19.388Z,78.58
2022-09-25T01:07:52.906Z,78.99
2022-09-25T01:10:23.331Z,78.89
2022-09-25T01:12:53.866Z,79.38
2022-09-25T01:15:32.520Z,79.91
2022-09-25T01:18:16.982Z,80.31
2022-09-25T01:21:20.775Z,80.77
2022-09-25T01:24:20.053Z,79.53
2022-09-25T01:27:41.268Z,78.22
2022-09-25T01:30:14.615Z,77.88
2022-09-25T01:32:59.839Z,78.49
2022-09-25T01:35:41.075Z,79.29
2022-09-25T01:38:24.713Z,80.15
2022-09-25T01:41:03.557Z,80.83
2022-09-25T01:43:39.628Z,81.41
2022-09-25T01:46:15.075Z,81.53
2022-09-25T01:48:48.093Z,81.79
2022-09-25T01:51:22.628Z,81.70
2022-09-25T01:53:56.739Z,81.04
2022-09-25T01:56:32.690Z,80.41
2022-09-25T01:59:09.283Z,80.53
2022-09-25T02:01:43.445Z,80.65
2022-09-25T02:04:17.998Z,81.01
2022-09-25T02:06:51.748Z,80.76
2022-09-25T02:09:30.525Z,81.05
2022-09-25T02:12:05.912Z,81.48
2022-09-25T02:14:40.341Z,81.73
2022-09-25T02:17:35.057Z,81.96
2022-09-25T02:20:21.395Z,81.79
2022-09-25T02:22:54.425Z,80.85
2022-09-25T02:25:36.966Z,80.50
2022-09-25T02:28:05.374Z,80.42
2022-09-25T02:30:33.547Z,80.67
2022-09-25T02:33:03.194Z,80.53
2022-09-25T02:35:31.324Z,80.20
2022-09-25T02:38:00.347Z,80.15
2022-09-25T02:40:42.343Z,79.81
2022-09-25T02:43:26.024Z,79.04
2022-09-25T02:46:10.122Z,79.21
2022-09-25T02:48:51.472Z,78.66
2022-09-25T02:51:30.322Z,77.81
2022-09-25T02:54:18.555Z,77.04
2022-09-25T02:56:57.770Z,77.46
2022-09-25T02:59:37.303Z,77.59
2022-09-25T03:02:06.666Z,78.64
2022-09-25T03:04:39.030Z,78.87
2022-09-25T03:07:08.357Z,78.52
2022-09-25T03:09:40.327Z,77.93
2022-09-25T03:12:08.340Z,78.52
2022-09-25T03:14:36.417Z,77.81
2022-09-25T03:17:07.540Z,77.54
2022-09-25T03:19:38.230Z,78.06
2022-09-25T03:22:06.491Z,77.96
2022-09-25T03:24:34.562Z,78.15
2022-09-25T03:27:02.555Z,78.73
2022-09-25T03:29:31.054Z,78.89
2022-09-25T03:31:59.059Z,79.21
2022-09-25T03:34:27.201Z,79.40
2022-09-25T03:36:56.589Z,79.29
2022-09-25T03:39:24.723Z,79.47
2022-09-25T03:41:52.777Z,79.24
2022-09-25T03:44:20.755Z,78.76
2022-09-25T03:46:48.771Z,78.37
2022-09-25T03:49:16.755Z,78.76
2022-09-25T03:51:44.761Z,78.77
2022-09-25T03:54:14.139Z,79.07
2022-09-25T03:56:42.608Z,78.94
2022-09-25T03:59:10.634Z,79.05
2022-09-25T04:01:38.746Z,79.24
2022-09-25T04:04:06.930Z,79.03
2022-09-25T04:06:34.944Z,78.85
2022-09-25T04:09:02.942Z,78.95
2022-09-25T04:11:32.420Z,79.29
2022-09-25T04:14:00.630Z,79.08
2022-09-25T04:16:29.489Z,79.02
2022-09-25T04:18:57.783Z,79.25
2022-09-25T04:21:25.885Z,78.42
2022-09-25T04:24:11.681Z,78.67
2022-09-25T04:26:41.052Z,78.55
2022-09-25T04:29:09.094Z,78.52
2022-09-25T04:31:37.094Z,78.75
2022-09-25T04:34:04.424Z,78.22
2022-09-25T04:36:32.522Z,78.81
2022-09-25T04:39:00.545Z,79.24
2022-09-25T04:41:28.545Z,77.77
2022-09-25T04:43:57.842Z,77.55
2022-09-25T04:46:25.865Z,77.36
2022-09-25T04:48:53.874Z,77.78
2022-09-25T04:51:21.927Z,78.17
2022-09-25T04:53:49.927Z,78.54
2022-09-25T04:56:17.888Z,79.37
2022-09-25T04:58:48.073Z,79.75
2022-09-25T05:01:20.573Z,79.89
2022-09-25T05:03:50.016Z,79.70
2022-09-25T05:06:18.250Z,79.73
2022-09-25T05:08:49.308Z,79.82
2022-09-25T05:11:17.270Z,79.88
2022-09-25T05:13:47.249Z,79.84
2022-09-25T05:16:15.308Z,80.27
2022-09-25T05:18:45.807Z,80.06
2022-09-25T05:21:13.803Z,80.23
2022-09-25T05:23:41.829Z,80.06
2022-09-25T05:26:11.112Z,80.19
2022-09-25T05:28:39.184Z,80.23
2022-09-25T05:31:08.189Z,80.22
2022-09-25T05:33:37.089Z,79.47
2022-09-25T05:36:08.754Z,78.83
2022-09-25T05:38:39.201Z,78.51
2022-09-25T05:41:10.151Z,78.65
2022-09-25T05:43:42.881Z,79.04
2022-09-25T05:46:12.309Z,78.99
2022-09-25T05:48:41.136Z,79.20
2022-09-25T05:51:11.891Z,79.27
2022-09-25T05:53:39.878Z,79.75
2022-09-25T05:56:08.348Z,79.36
2022-09-25T05:58:37.194Z,79.46
2022-09-25T06:01:07.682Z,79.88
2022-09-25T06:03:36.175Z,79.58
2022-09-25T06:06:04.406Z,79.54
2022-09-25T06:08:35.507Z,79.61
2022-09-25T06:11:05.165Z,80.07
2022-09-25T06:13:34.645Z,79.87
2022-09-25T06:16:04.136Z,79.86
2022-09-25T06:18:33.428Z,79.39
2022-09-25T06:21:04.101Z,78.50
2022-09-25T06:23:33.734Z,78.89
2022-09-25T06:26:03.006Z,78.46
2022-09-25T06:28:31.750Z,78.69
2022-09-25T06:31:02.172Z,78.74
2022-09-25T06:33:31.082Z,78.62
2022-09-25T06:36:00.469Z,78.06
2022-09-25T06:38:29.007Z,77.41
2022-09-25T06:41:00.854Z,77.55
2022-09-25T06:43:31.259Z,77.01
2022-09-25T06:46:03.785Z,77.22
2022-09-25T06:48:32.827Z,76.81
2022-09-25T06:51:02.652Z,76.54
2022-09-25T06:53:31.584Z,76.51
2022-09-25T06:56:01.698Z,76.76
2022-09-25T06:58:31.328Z,76.97
2022-09-25T07:00:59.592Z,76.51
2022-09-25T07:03:44.630Z,76.03
2022-09-25T07:06:16.224Z,75.47
2022-09-25T07:08:46.264Z,74.54
2022-09-25T07:11:19.922Z,74.66
2022-09-25T07:13:49.920Z,75.05
2022-09-25T07:16:21.007Z,73.75
2022-09-25T07:18:49.507Z,73.35
2022-09-25T07:21:19.612Z,73.49
2022-09-25T07:23:49.599Z,74.18
2022-09-25T07:26:22.796Z,73.97
2022-09-25T07:28:57.578Z,73.92
2022-09-25T07:31:28.566Z,74.31
2022-09-25T07:33:56.608Z,74.27
2022-09-25T07:36:24.710Z,73.82
2022-09-25T07:38:53.929Z,73.34
2022-09-25T07:41:24.295Z,71.36
2022-09-25T07:44:06.306Z,72.18
2022-09-25T07:46:44.505Z,72.33
2022-09-25T07:49:12.999Z,71.93
2022-09-25T07:51:41.059Z,69.94
2022-09-25T07:54:09.519Z,69.60
2022-09-25T07:56:39.078Z,69.02
2022-09-25T07:59:07.326Z,67.99
2022-09-25T08:01:39.520Z,68.29
2022-09-25T08:04:10.788Z,67.43
2022-09-25T08:06:39.213Z,66.90
2022-09-25T08:09:10.606Z,67.09
2022-09-25T08:11:40.248Z,67.20
2022-09-25T08:14:08.250Z,67.26
2022-09-25T08:16:36.349Z,66.98
2022-09-25T08:19:05.001Z,66.48
2022-09-25T08:21:33.130Z,66.23
2022-09-25T08:24:01.632Z,65.46
2022-09-25T08:26:31.872Z,65.37
2022-09-25T08:29:01.366Z,64.05
2022-09-25T08:31:29.454Z,64.43
2022-09-25T08:34:06.159Z,63.95
2022-09-25T08:36:45.709Z,62.00
2022-09-25T08:39:13.693Z,62.28
2022-09-25T08:41:51.185Z,61.90
2022-09-25T08:44:29.757Z,61.27
2022-09-25T08:47:22.460Z,59.60
2022-09-25T08:50:02.039Z,59.65
2022-09-25T08:52:32.073Z,58.72
2022-09-25T08:55:00.213Z,58.18
2022-09-25T08:57:37.220Z,56.72
2022-09-25T09:00:15.066Z,55.60
2022-09-25T09:02:48.902Z,55.90
2022-09-25T09:05:26.690Z,55.79
2022-09-25T09:08:00.957Z,54.89
2022-09-25T09:10:37.121Z,56.03
2022-09-25T09:13:18.613Z,56.50
2022-09-25T09:15:55.081Z,53.86
2022-09-25T09:18:27.598Z,53.82
2022-09-25T09:20:58.133Z,53.44
2022-09-25T09:23:34.918Z,53.41
2022-09-25T09:26:05.629Z,53.37
2022-09-25T09:29:05.645Z,53.82
2022-09-25T09:31:52.175Z,53.25
2022-09-25T09:35:04.565Z,54.65
2022-09-25T09:37:50.893Z,52.98
2022-09-25T09:40:33.537Z,53.21
2022-09-25T09:45:53.054Z,54.63
2022-09-25T09:48:32.420Z,55.38
2022-09-25T09:51:10.211Z,56.13
2022-09-25T09:53:45.211Z,56.01
2022-09-25T09:56:19.501Z,56.73
2022-09-25T09:58:54.309Z,56.70
2022-09-25T10:01:42.991Z,56.49
2022-09-25T10:04:20.110Z,56.97
2022-09-25T10:06:56.106Z,56.49
2022-09-25T10:09:25.926Z,56.50
2022-09-25T10:12:04.248Z,56.00
2022-09-25T10:14:40.440Z,56.46
2022-09-25T10:17:12.582Z,55.66
2022-09-25T10:19:52.568Z,55.60
2022-09-25T10:22:25.882Z,54.84
2022-09-25T10:24:58.630Z,56.05
2022-09-25T10:27:33.684Z,56.85
2022-09-25T10:30:18.785Z,56.76
2022-09-25T10:32:58.082Z,56.72
2022-09-25T10:35:41.063Z,55.39
2022-09-25T10:38:34.328Z,55.97
2022-09-25T10:41:08.953Z,56.32
2022-09-25T10:43:51.452Z,56.93
2022-09-25T10:46:43.882Z,56.63
2022-09-25T10:49:38.815Z,57.36
2022-09-25T10:52:10.987Z,56.75
2022-09-25T10:54:44.916Z,56.67
2022-09-25T10:57:34.295Z,56.69
2022-09-25T11:00:05.493Z,56.72
2022-09-25T11:02:40.192Z,55.98
2022-09-25T11:05:18.651Z,56.59
2022-09-25T11:07:55.086Z,56.27
2022-09-25T11:10:26.680Z,56.23
2022-09-25T11:12:56.618Z,56.45
2022-09-25T11:15:28.319Z,56.65
2022-09-25T11:17:58.635Z,56.72
2022-09-25T11:20:30.536Z,56.33
2022-09-25T11:23:29.871Z,56.30
2022-09-25T11:26:09.745Z,56.10
2022-09-25T11:28:47.728Z,56.47
2022-09-25T11:31:29.483Z,56.19
2022-09-25T11:34:23.828Z,56.63
2022-09-25T11:37:01.378Z,55.65
2022-09-25T11:39:56.233Z,55.30
2022-09-25T11:42:35.263Z,55.43
2022-09-25T11:45:11.692Z,54.10
2022-09-25T11:47:49.423Z,54.67
2022-09-25T11:50:21.313Z,54.87
2022-09-25T11:53:06.029Z,55.15
2022-09-25T11:55:58.812Z,54.07
2022-09-25T11:58:57.315Z,53.97
2022-09-25T12:01:35.873Z,54.24
2022-09-25T12:04:44.712Z,54.49
2022-09-25T12:07:39.854Z,53.92
2022-09-25T12:10:24.873Z,54.05
2022-09-25T12:13:08.949Z,53.08
2022-09-25T12:16:01.184Z,53.18
2022-09-25T12:18:50.262Z,52.51
2022-09-25T12:21:34.397Z,53.02
2022-09-25T12:24:17.446Z,53.90
2022-09-25T12:27:01.132Z,53.18
2022-09-25T12:30:16.619Z,53.45
2022-09-25T12:33:05.395Z,52.61
2022-09-25T12:35:47.639Z,51.83
2022-09-25T12:38:33.428Z,51.39
2022-09-25T12:41:12.634Z,52.40
2022-09-25T12:43:51.987Z,52.03
2022-09-25T12:46:29.796Z,51.45
2022-09-25T12:49:07.834Z,51.70
2022-09-25T12:51:42.242Z,51.17
2022-09-25T12:54:24.866Z,51.95
2022-09-25T12:56:59.722Z,51.12
2022-09-25T12:59:36.274Z,51.68
2022-09-25T13:02:17.665Z,51.16
2022-09-25T13:05:03.081Z,51.73
2022-09-25T13:07:40.860Z,51.85
2022-09-25T13:10:26.362Z,51.61
2022-09-25T13:13:00.505Z,51.70
2022-09-25T13:15:35.173Z,51.75
2022-09-25T13:18:07.359Z,51.48
2022-09-25T13:20:55.915Z,51.37
2022-09-25T13:23:36.744Z,51.53
2022-09-25T13:26:14.261Z,51.04
2022-09-25T13:28:52.494Z,51.18
2022-09-25T13:31:27.242Z,51.04
2022-09-25T13:34:04.795Z,50.47
2022-09-25T13:36:48.332Z,50.22
2022-09-25T13:39:45.842Z,50.71
2022-09-25T13:42:26.498Z,50.14
2022-09-25T13:45:26.887Z,49.73
2022-09-25T13:48:04.399Z,49.76
2022-09-25T13:50:43.531Z,48.98
2022-09-25T13:53:22.102Z,48.94
2022-09-25T13:56:27.929Z,48.66
2022-09-25T13:59:42.374Z,48.12
2022-09-25T14:02:47.646Z,47.98
2022-09-25T14:05:21.547Z,48.04
2022-09-25T14:07:57.040Z,48.28
2022-09-25T14:10:25.512Z,48.86
2022-09-25T14:12:54.127Z,49.17
2022-09-25T14:15:29.395Z,48.91
2022-09-25T14:18:00.868Z,49.12
2022-09-25T14:20:39.370Z,48.73
2022-09-25T14:23:15.826Z,47.50
2022-09-25T14:25:46.787Z,47.74
2022-09-25T14:28:25.364Z,48.34
2022-09-25T14:31:15.982Z,48.03
2022-09-25T14:34:29.890Z,48.57
2022-09-25T14:37:14.107Z,49.37
2022-09-25T14:39:58.390Z,49.02
2022-09-25T14:43:02.321Z,49.71
2022-09-25T14:45:55.066Z,50.83
2022-09-25T14:48:30.013Z,51.70
2022-09-25T14:51:02.723Z,52.26
2022-09-25T14:53:37.374Z,53.07
2022-09-25T14:56:14.572Z,52.64
2022-09-25T14:58:49.508Z,52.21
2022-09-25T15:01:27.625Z,52.36
2022-09-25T15:03:59.807Z,51.71
2022-09-25T15:06:31.842Z,51.75
2022-09-25T15:09:02.802Z,51.38
2022-09-25T15:11:44.015Z,52.24
2022-09-25T15:14:16.325Z,52.61
2022-09-25T15:17:02.755Z,52.63
2022-09-25T15:19:35.774Z,53.37
2022-09-25T15:22:10.657Z,53.90
2022-09-25T15:24:46.511Z,53.89
2022-09-25T15:27:17.923Z,54.66
2022-09-25T15:29:48.894Z,55.04
2022-09-25T15:32:22.306Z,55.17
2022-09-25T15:34:50.716Z,55.69
2022-09-25T15:37:26.273Z,56.42
2022-09-25T15:39:55.615Z,56.43
2022-09-25T15:42:25.249Z,56.07
2022-09-25T15:44:54.181Z,55.87
2022-09-25T15:47:53.623Z,55.94
2022-09-25T15:50:26.840Z,56.23
2022-09-25T15:52:58.485Z,56.68
2022-09-25T15:55:31.154Z,57.13
2022-09-25T15:58:12.817Z,57.22
2022-09-25T16:01:12.466Z,57.22
2022-09-25T16:04:08.749Z,57.56
2022-09-25T16:06:42.889Z,58.11
2022-09-25T16:09:22.818Z,58.56
2022-09-25T16:11:51.674Z,58.76
2022-09-25T16:14:30.235Z,58.89
2022-09-25T16:17:00.044Z,59.15
2022-09-25T16:19:35.233Z,59.80
2022-09-25T16:22:23.255Z,59.61
2022-09-25T16:24:53.157Z,60.18
2022-09-25T16:27:28.753Z,61.08
2022-09-25T16:30:03.686Z,61.05
2022-09-25T16:32:32.927Z,61.23
2022-09-25T16:35:03.683Z,62.11
2022-09-25T16:37:36.008Z,62.26
2022-09-25T16:40:28.831Z,63.07
2022-09-25T16:42:58.768Z,63.83
2022-09-25T16:45:33.112Z,63.06
2022-09-25T16:48:23.862Z,63.15
2022-09-25T16:50:51.859Z,62.88
2022-09-25T16:53:19.852Z,62.57
2022-09-25T16:55:53.717Z,63.47
2022-09-25T16:58:22.950Z,63.69
2022-09-25T17:00:52.608Z,63.00
2022-09-25T17:03:21.796Z,63.30
2022-09-25T17:05:49.791Z,63.48
2022-09-25T17:08:21.566Z,63.24
2022-09-25T17:10:52.906Z,63.92
2022-09-25T17:13:30.763Z,63.96
2022-09-25T17:16:00.210Z,63.71
2022-09-25T17:18:28.292Z,63.71
2022-09-25T17:20:58.332Z,63.98
2022-09-25T17:23:27.558Z,64.30
2022-09-25T17:26:02.291Z,63.86
2022-09-25T17:28:32.878Z,64.48
2022-09-25T17:31:02.834Z,64.34
2022-09-25T17:33:32.698Z,63.66
2022-09-25T17:36:04.869Z,64.10
2022-09-25T17:38:34.068Z,63.72
2022-09-25T17:41:06.007Z,63.99
2022-09-25T17:43:34.555Z,63.32
2022-09-25T17:46:03.977Z,63.76
2022-09-25T17:48:33.412Z,63.29
2022-09-25T17:51:04.741Z,64.08
2022-09-25T17:53:34.707Z,64.30
2022-09-25T17:56:03.748Z,64.34
2022-09-25T17:58:32.761Z,64.11
2022-09-25T18:01:06.454Z,63.24
2022-09-25T18:03:34.525Z,63.66
2022-09-25T18:06:02.501Z,63.58
2022-09-25T18:08:31.071Z,64.00
2022-09-25T18:10:59.635Z,63.61
2022-09-25T18:13:27.838Z,63.85
2022-09-25T18:16:00.987Z,63.80
2022-09-25T18:18:50.545Z,63.23
2022-09-25T18:21:36.601Z,62.83
2022-09-25T18:24:04.927Z,63.05
2022-09-25T18:26:33.015Z,63.10
2022-09-25T18:29:01.017Z,63.21
2022-09-25T18:31:29.401Z,63.42
2022-09-25T18:33:58.744Z,63.59
2022-09-25T18:36:26.803Z,63.24
2022-09-25T18:38:54.823Z,62.91
2022-09-25T18:41:23.027Z,63.50
2022-09-25T18:43:51.144Z,63.88
2022-09-25T18:46:19.197Z,64.20
2022-09-25T18:48:48.207Z,63.98
2022-09-25T18:51:17.968Z,64.22
2022-09-25T18:53:50.726Z,63.96
2022-09-25T18:56:20.600Z,63.80
2022-09-25T18:58:48.972Z,63.96
2022-09-25T19:01:17.053Z,64.25
2022-09-25T19:03:50.430Z,64.51
2022-09-25T19:06:21.122Z,64.56
2022-09-25T19:08:54.076Z,64.39
2022-09-25T19:11:22.395Z,64.35
2022-09-25T19:13:50.759Z,64.50
2022-09-25T19:16:20.181Z,65.17
2022-09-25T19:18:50.110Z,64.29
2022-09-25T19:21:22.425Z,64.50
2022-09-25T19:23:51.336Z,64.53
2022-09-25T19:26:22.271Z,64.49
2022-09-25T19:28:50.429Z,65.39
2022-09-25T19:31:21.116Z,65.75
2022-09-25T19:33:49.617Z,64.95
2022-09-25T19:36:21.781Z,65.51
2022-09-25T19:38:49.780Z,65.63
2022-09-25T19:41:20.380Z,65.88
2022-09-25T19:43:48.550Z,65.95
2022-09-25T19:46:18.152Z,65.83
2022-09-25T19:48:48.433Z,65.55
2022-09-25T19:51:18.792Z,66.07
2022-09-25T19:53:48.847Z,65.60
2022-09-25T19:56:19.090Z,65.87
2022-09-25T19:58:49.632Z,66.66
2022-09-25T20:01:21.024Z,66.62
2022-09-25T20:03:49.664Z,66.62
2022-09-25T20:06:17.756Z,66.54
2022-09-25T20:08:47.673Z,66.45
2022-09-25T20:11:18.514Z,67.12
2022-09-25T20:13:48.439Z,67.68
2022-09-25T20:16:18.845Z,67.07
2022-09-25T20:18:50.088Z,66.87
2022-09-25T20:21:21.297Z,67.02
2022-09-25T20:23:52.834Z,67.12
2022-09-25T20:26:23.102Z,67.06
2022-09-25T20:28:54.882Z,66.99
2022-09-25T20:31:23.269Z,67.21
2022-09-25T20:33:51.513Z,67.75
2022-09-25T20:36:20.228Z,67.56
2022-09-25T20:38:52.730Z,67.86
2022-09-25T20:41:22.193Z,67.45
2022-09-25T20:43:52.597Z,68.11
2022-09-25T20:46:21.956Z,68.23
2022-09-25T20:48:52.605Z,68.88
2022-09-25T20:51:27.262Z,69.70
2022-09-25T20:53:59.397Z,70.95
2022-09-25T20:56:29.136Z,70.80
2022-09-25T20:58:58.939Z,70.89
2022-09-25T21:01:31.308Z,71.64
2022-09-25T21:04:02.350Z,71.77
2022-09-25T21:06:33.919Z,71.06
2022-09-25T21:09:07.610Z,71.62
2022-09-25T21:11:37.380Z,72.15
2022-09-25T21:14:05.530Z,72.11
2022-09-25T21:16:34.927Z,72.38
2022-09-25T21:19:05.055Z,72.33
2022-09-25T21:21:34.715Z,72.98
2022-09-25T21:24:04.395Z,73.66
2022-09-25T21:26:33.995Z,73.78
2022-09-25T21:29:05.739Z,74.40
2022-09-25T21:31:37.564Z,75.45
2022-09-25T21:34:08.382Z,76.33
2022-09-25T21:36:36.897Z,77.07
2022-09-25T21:39:07.377Z,77.60
2022-09-25T21:41:36.488Z,77.95
2022-09-25T21:44:07.829Z,78.71
2022-09-25T21:46:36.397Z,79.28
2022-09-25T21:49:07.693Z,79.84
2022-09-25T21:51:38.666Z,80.41
2022-09-25T21:54:09.979Z,80.50
2022-09-25T21:56:37.991Z,81.11
2022-09-25T21:59:09.109Z,81.27
2022-09-25T22:01:39.963Z,81.24
2022-09-25T22:04:12.901Z,81.25
2022-09-25T22:06:44.351Z,81.10
2022-09-25T22:09:17.134Z,80.85
2022-09-25T22:11:47.768Z,80.53
2022-09-25T22:14:16.838Z,80.55
2022-09-25T22:16:49.192Z,80.58
2022-09-25T22:19:21.920Z,80.66
2022-09-25T22:21:53.349Z,80.55
2022-09-25T22:24:23.405Z,80.72
2022-09-25T22:26:53.435Z,81.77
2022-09-25T22:29:22.139Z,82.31
2022-09-25T22:31:50.559Z,82.55
2022-09-25T22:34:22.566Z,82.14
2022-09-25T22:36:56.250Z,82.69
2022-09-25T22:39:28.862Z,83.64
2022-09-25T22:41:57.506Z,84.26
2022-09-25T22:44:26.536Z,83.63
2022-09-25T22:46:54.667Z,83.27
2022-09-25T22:49:22.876Z,83.14
2022-09-25T22:51:50.916Z,83.67
2022-09-25T22:54:19.691Z,84.26
2022-09-25T22:56:49.015Z,84.95
2022-09-25T22:59:18.795Z,85.35
2022-09-25T23:01:50.023Z,85.67
2022-09-25T23:04:21.551Z,85.97
2022-09-25T23:06:50.393Z,86.08
2022-09-25T23:09:21.715Z,86.32
2022-09-25T23:11:51.410Z,86.32
2022-09-25T23:14:22.467Z,86.39
2022-09-25T23:16:52.731Z,86.24
2022-09-25T23:19:22.453Z,86.23
2022-09-25T23:21:52.864Z,86.22
2022-09-25T23:24:22.952Z,86.30
2022-09-25T23:26:52.720Z,86.46
2022-09-25T23:29:23.392Z,86.34
2022-09-25T23:31:52.023Z,85.78
2022-09-25T23:34:20.674Z,85.03
2022-09-25T23:36:48.917Z,85.01
2022-09-25T23:39:19.875Z,84.91
2022-09-25T23:41:48.787Z,84.99
2022-09-25T23:44:18.449Z,84.81
2022-09-25T23:46:46.495Z,84.74
2022-09-25T23:49:15.133Z,84.70
2022-09-25T23:51:43.387Z,84.25
2022-09-25T23:54:12.124Z,84.16
2022-09-25T23:56:41.244Z,84.30
2022-09-25T23:59:12.491Z,84.33
